Time;durP1;ratioP1;P1;durP2;ratioP2;P2;SDS_P1;SDS_P2;PMS_P1;PMS_P2;Temp;Humidity;BMP_temperature;BMP_pressure;BME280_temperature;BME280_humidity;BME280_pressure;Samples;Min_cycle;Max_cycle;Signal;HPM_P1;HPM_P2
2021/10/02 00:45:04;;;;;;;19.75;15.88;;;8.10;99.90;;;;;;4967427;28;20031;-75
2021/10/02 00:47:34;;;;;;;22.83;18.73;;;8.10;99.90;;;;;;4965092;28;20051;-75
2021/10/02 00:50:00;;;;;;;23.52;19.85;;;8.10;99.90;;;;;;4973261;28;20037;-75
2021/10/02 00:52:26;;;;;;;26.77;20.02;;;8.20;99.90;;;;;;4957878;28;20034;-75
2021/10/02 00:54:52;;;;;;;25.50;19.70;;;8.30;99.90;;;;;;4964246;28;20172;-75
2021/10/02 00:57:18;;;;;;;25.70;20.73;;;8.30;99.90;;;;;;4962106;28;20547;-75
2021/10/02 00:59:46;;;;;;;27.40;19.92;;;8.30;99.90;;;;;;4970961;28;20078;-75
2021/10/02 01:02:31;;;;;;;27.48;19.17;;;8.30;99.90;;;;;;4966434;28;20036;-75
2021/10/02 01:04:57;;;;;;;24.38;20.35;;;8.30;99.90;;;;;;4968453;28;20554;-75
2021/10/02 01:07:37;;;;;;;24.38;19.15;;;8.30;99.90;;;;;;4966702;28;20043;-74
2021/10/02 01:10:10;;;;;;;29.13;20.60;;;8.40;99.90;;;;;;4967529;28;21607;-75
2021/10/02 01:13:06;;;;;;;26.30;19.77;;;8.40;99.90;;;;;;4984077;28;20486;-75
2021/10/02 01:15:43;;;;;;;28.33;20.50;;;8.50;99.90;;;;;;4979536;28;20050;-75
2021/10/02 01:18:22;;;;;;;26.83;20.92;;;8.60;99.90;;;;;;4979656;28;20038;-75
2021/10/02 01:21:25;;;;;;;28.50;21.52;;;8.60;99.90;;;;;;4980616;28;20035;-75
2021/10/02 01:23:51;;;;;;;27.23;21.15;;;8.60;99.90;;;;;;4989163;28;20038;-75
2021/10/02 01:26:44;;;;;;;25.50;21.38;;;8.60;99.90;;;;;;4985742;28;20034;-75
2021/10/02 01:29:12;;;;;;;30.13;20.98;;;8.70;99.90;;;;;;4986111;28;20034;-75
2021/10/02 01:31:45;;;;;;;30.33;21.95;;;8.70;99.90;;;;;;4992232;28;20037;-75
2021/10/02 01:34:38;;;;;;;26.08;21.27;;;8.80;99.90;;;;;;4979136;28;20058;-75
2021/10/02 01:48:00;;;;;;;30.52;23.05;;;8.90;99.90;;;;;;4987778;28;20519;-73
2021/10/02 01:50:28;;;;;;;35.28;24.15;;;8.90;99.90;;;;;;4987647;28;20031;-73
2021/10/02 01:52:58;;;;;;;31.52;22.60;;;9.00;99.90;;;;;;4986053;28;20037;-74
2021/10/02 01:55:25;;;;;;;30.67;23.88;;;9.00;99.90;;;;;;4989503;28;20053;-73
2021/10/02 01:57:55;;;;;;;31.13;24.17;;;9.00;99.90;;;;;;4982204;28;20042;-73
2021/10/02 02:00:22;;;;;;;33.63;25.08;;;9.00;99.90;;;;;;4987418;28;20015;-74
2021/10/02 02:03:01;;;;;;;36.50;24.38;;;9.10;99.90;;;;;;4983143;28;20037;-74
2021/10/02 02:05:30;;;;;;;34.28;24.77;;;9.10;99.90;;;;;;4990046;28;20022;-74
2021/10/02 02:08:01;;;;;;;31.80;25.20;;;9.10;99.90;;;;;;4980474;28;20037;-73
2021/10/02 02:10:27;;;;;;;40.13;26.75;;;9.10;99.90;;;;;;4990548;28;20034;-73
2021/10/02 02:12:57;;;;;;;35.42;26.30;;;9.20;99.90;;;;;;4984239;28;20125;-73
2021/10/02 02:15:26;;;;;;;37.00;26.17;;;9.20;99.90;;;;;;4988548;28;20105;-73
2021/10/02 02:17:55;;;;;;;39.00;27.05;;;9.30;99.90;;;;;;4977127;28;20117;-75
2021/10/02 02:20:27;;;;;;;37.13;25.98;;;9.30;99.90;;;;;;4990439;28;20030;-73
2021/10/02 02:22:53;;;;;;;35.80;26.83;;;9.30;99.90;;;;;;4974222;28;20115;-73
2021/10/02 02:25:19;;;;;;;42.30;28.63;;;9.40;99.90;;;;;;4988729;28;20018;-73
2021/10/02 02:27:45;;;;;;;36.75;26.23;;;9.40;99.90;;;;;;4978951;28;20037;-74
2021/10/02 02:30:11;;;;;;;34.22;26.60;;;9.40;99.90;;;;;;4980323;28;20025;-74
2021/10/02 02:32:40;;;;;;;35.22;26.45;;;9.50;99.90;;;;;;4980787;28;20026;-74
2021/10/02 02:35:06;;;;;;;39.40;28.98;;;9.50;99.90;;;;;;4992184;28;20121;-74
2021/10/02 02:37:32;;;;;;;40.00;28.08;;;9.50;99.90;;;;;;4983709;28;20153;-75
2021/10/02 02:39:58;;;;;;;41.40;29.02;;;9.50;99.90;;;;;;4988709;28;20114;-75
2021/10/02 02:42:24;;;;;;;38.58;29.27;;;9.60;99.90;;;;;;4974218;28;20034;-73
2021/10/02 02:44:52;;;;;;;38.55;27.40;;;9.60;99.90;;;;;;4990810;28;20023;-74
2021/10/02 02:47:23;;;;;;;37.28;27.50;;;9.60;99.90;;;;;;4983571;28;20108;-73
2021/10/02 02:50:06;;;;;;;39.95;29.02;;;9.70;99.90;;;;;;4985832;28;20022;-75
2021/10/02 02:52:45;;;;;;;39.80;27.88;;;9.70;99.90;;;;;;4987797;28;20038;-73
2021/10/02 02:55:13;;;;;;;42.03;29.63;;;9.60;99.90;;;;;;4983126;28;20046;-75
2021/10/02 02:57:46;;;;;;;43.97;31.45;;;9.70;99.90;;;;;;4989955;28;20509;-75
2021/10/02 03:00:15;;;;;;;44.50;30.60;;;9.60;99.90;;;;;;4989271;28;20537;-75
2021/10/02 03:02:52;;;;;;;50.08;32.92;;;9.70;99.90;;;;;;4984371;28;20022;-75
2021/10/02 03:05:21;;;;;;;47.63;32.25;;;9.70;99.90;;;;;;4986706;28;20506;-73
2021/10/02 03:08:07;;;;;;;48.47;31.20;;;9.80;99.90;;;;;;4991266;28;20034;-73
2021/10/02 03:10:33;;;;;;;46.78;35.13;;;9.80;99.90;;;;;;5003328;28;20407;-73
2021/10/02 03:13:11;;;;;;;53.08;34.67;;;9.90;99.90;;;;;;4990605;28;20025;-75
2021/10/02 03:15:40;;;;;;;52.72;34.75;;;9.90;99.90;;;;;;4988588;28;20034;-75
2021/10/02 03:18:09;;;;;;;47.80;32.75;;;10.00;99.90;;;;;;4985142;28;20033;-75
2021/10/02 03:20:37;;;;;;;59.85;36.53;;;10.00;99.90;;;;;;5005611;28;20048;-73
2021/10/02 03:23:04;;;;;;;57.58;37.47;;;10.00;99.90;;;;;;4991973;28;20023;-73
2021/10/02 03:25:32;;;;;;;56.58;36.50;;;10.00;99.90;;;;;;4988215;28;20030;-73
2021/10/02 03:28:00;;;;;;;55.97;37.40;;;10.00;99.90;;;;;;4989328;28;20053;-73
2021/10/02 03:30:28;;;;;;;57.15;37.88;;;10.00;99.90;;;;;;4987691;28;20105;-73
2021/10/02 03:32:54;;;;;;;62.55;38.83;;;10.10;99.90;;;;;;4982774;28;20062;-73
2021/10/02 03:35:20;;;;;;;63.03;37.53;;;10.10;99.90;;;;;;4990083;28;20061;-73
2021/10/02 03:37:49;;;;;;;64.80;40.63;;;10.00;99.90;;;;;;4988374;28;20043;-73
2021/10/02 03:40:16;;;;;;;64.75;40.78;;;10.10;99.90;;;;;;4985565;28;20034;-73
2021/10/02 03:42:49;;;;;;;57.03;39.30;;;10.10;99.90;;;;;;4986591;28;20066;-74
2021/10/02 03:45:19;;;;;;;63.38;39.97;;;10.20;99.90;;;;;;4981905;28;20088;-73
2021/10/02 03:47:45;;;;;;;59.40;39.05;;;10.20;99.90;;;;;;4986318;28;20040;-74
2021/10/02 03:50:12;;;;;;;58.83;39.38;;;10.20;99.90;;;;;;4990596;28;20026;-73
2021/10/02 03:52:39;;;;;;;60.47;39.65;;;10.20;99.90;;;;;;4985199;28;20844;-73
2021/10/02 03:55:07;;;;;;;60.03;39.38;;;10.30;99.90;;;;;;5001617;28;20038;-75
2021/10/02 03:57:32;;;;;;;61.53;39.60;;;10.30;99.90;;;;;;4984925;28;20026;-73
2021/10/02 03:59:58;;;;;;;61.53;39.83;;;10.30;99.90;;;;;;4986967;28;20113;-75
2021/10/02 04:02:24;;;;;;;58.60;38.63;;;10.30;99.90;;;;;;4988657;28;20030;-73
2021/10/02 04:04:50;;;;;;;60.10;40.25;;;10.30;99.90;;;;;;4988548;28;20113;-75
2021/10/02 04:07:16;;;;;;;63.53;40.42;;;10.30;99.90;;;;;;4988346;28;20026;-74
2021/10/02 04:09:42;;;;;;;70.60;42.83;;;10.30;99.90;;;;;;4992715;28;20023;-73
2021/10/02 04:12:07;;;;;;;59.00;37.90;;;10.30;99.90;;;;;;4991066;28;20022;-73
2021/10/02 04:14:33;;;;;;;62.22;39.38;;;10.30;99.90;;;;;;4991796;28;20031;-73
2021/10/02 04:16:59;;;;;;;58.28;39.85;;;10.30;99.90;;;;;;4994164;28;20112;-73
2021/10/02 04:19:26;;;;;;;62.47;40.15;;;10.30;99.90;;;;;;4989936;28;20077;-75
2021/10/02 04:21:51;;;;;;;70.40;41.80;;;10.30;99.90;;;;;;4989139;28;20031;-75
2021/10/02 04:24:18;;;;;;;61.40;40.30;;;10.30;99.90;;;;;;4990602;28;20034;-75
2021/10/02 04:26:44;;;;;;;68.13;40.72;;;10.30;99.90;;;;;;4993873;28;20023;-73
2021/10/02 04:29:10;;;;;;;66.90;41.65;;;10.30;99.90;;;;;;4995855;28;20022;-73
2021/10/02 04:31:35;;;;;;;73.07;42.70;;;10.30;99.90;;;;;;4991823;28;20510;-75
2021/10/02 04:34:01;;;;;;;68.60;41.00;;;10.30;99.90;;;;;;4989128;28;20073;-73
2021/10/02 04:36:27;;;;;;;62.75;39.38;;;10.30;99.90;;;;;;4990855;28;20110;-73
2021/10/02 04:38:54;;;;;;;60.17;38.63;;;10.30;99.90;;;;;;4988499;28;20062;-73
2021/10/02 04:41:20;;;;;;;65.35;38.78;;;10.30;99.90;;;;;;4993771;28;20060;-75
2021/10/02 04:43:46;;;;;;;64.03;40.50;;;10.30;99.90;;;;;;4993940;28;20026;-75
2021/10/02 04:46:13;;;;;;;64.00;39.70;;;10.30;99.90;;;;;;4989828;28;20442;-73
2021/10/02 04:48:40;;;;;;;56.83;35.78;;;10.30;99.90;;;;;;4990836;28;20149;-73
2021/10/02 04:51:07;;;;;;;57.60;38.15;;;10.30;99.90;;;;;;4989260;28;20384;-73
2021/10/02 04:53:32;;;;;;;57.33;36.95;;;10.30;99.90;;;;;;4990627;28;20037;-74
2021/10/02 04:56:00;;;;;;;56.78;37.40;;;10.30;99.90;;;;;;4994677;28;20034;-73
2021/10/02 04:58:29;;;;;;;64.55;36.95;;;10.30;99.90;;;;;;4988253;28;20022;-75
2021/10/02 05:00:56;;;;;;;66.75;38.97;;;10.30;99.90;;;;;;4990244;28;20029;-75
2021/10/02 05:03:22;;;;;;;61.33;39.15;;;10.30;99.90;;;;;;4988458;28;20120;-74
2021/10/02 05:05:48;;;;;;;67.78;40.03;;;10.30;99.90;;;;;;4989775;28;20042;-73
2021/10/02 05:08:14;;;;;;;64.80;39.53;;;10.30;99.90;;;;;;4994126;28;20435;-75
2021/10/02 05:10:39;;;;;;;58.50;37.15;;;10.30;99.90;;;;;;4989634;28;20042;-73
2021/10/02 05:13:06;;;;;;;61.80;38.47;;;10.30;99.90;;;;;;4990572;28;20438;-73
2021/10/02 05:15:32;;;;;;;60.75;36.58;;;10.30;99.90;;;;;;4988636;28;20042;-73
2021/10/02 05:17:58;;;;;;;53.17;34.70;;;10.40;99.90;;;;;;4988902;28;20077;-73
2021/10/02 05:20:24;;;;;;;45.33;30.92;;;10.30;99.90;;;;;;4991917;28;20391;-75
2021/10/02 05:22:50;;;;;;;44.83;29.95;;;10.30;99.90;;;;;;4990812;28;20443;-74
2021/10/02 05:25:16;;;;;;;50.80;31.77;;;10.30;99.90;;;;;;4987552;28;20049;-74
2021/10/02 05:27:42;;;;;;;49.80;31.75;;;10.30;99.90;;;;;;4985946;28;20046;-75
2021/10/02 05:30:08;;;;;;;48.25;32.55;;;10.30;99.90;;;;;;4989615;28;20031;-74
2021/10/02 05:32:33;;;;;;;48.08;31.70;;;10.30;99.90;;;;;;4989952;28;20487;-74
2021/10/02 05:34:59;;;;;;;57.22;34.88;;;10.30;99.90;;;;;;4993129;28;20037;-73
2021/10/02 05:37:25;;;;;;;50.15;33.42;;;10.40;99.90;;;;;;4988262;28;20060;-73
2021/10/02 05:39:51;;;;;;;53.15;34.65;;;10.40;99.90;;;;;;4988116;28;20053;-73
2021/10/02 05:42:17;;;;;;;42.58;28.48;;;10.40;99.90;;;;;;4991327;28;20096;-74
2021/10/02 05:44:42;;;;;;;47.35;28.92;;;10.50;99.90;;;;;;4988548;28;20022;-74
2021/10/02 05:47:08;;;;;;;47.30;30.10;;;10.50;99.90;;;;;;4993551;28;20077;-75
2021/10/02 05:49:35;;;;;;;43.92;28.63;;;10.50;99.90;;;;;;4989702;28;20030;-73
2021/10/02 05:52:01;;;;;;;43.05;27.85;;;10.50;99.90;;;;;;4987884;28;20618;-74
2021/10/02 05:54:27;;;;;;;46.40;29.00;;;10.60;99.90;;;;;;4989550;28;20077;-75
2021/10/02 05:56:53;;;;;;;50.13;30.20;;;10.60;99.90;;;;;;4983066;28;20035;-75
2021/10/02 05:59:18;;;;;;;50.85;32.13;;;10.60;99.90;;;;;;4992176;28;20030;-74
2021/10/02 06:01:44;;;;;;;45.33;30.10;;;10.60;99.90;;;;;;4992673;28;20743;-75
2021/10/02 06:04:10;;;;;;;49.20;30.08;;;10.60;99.90;;;;;;4990803;28;20027;-74
2021/10/02 06:06:36;;;;;;;50.38;31.40;;;10.70;99.90;;;;;;4991845;28;20033;-73
2021/10/02 06:09:01;;;;;;;47.17;29.95;;;10.70;99.90;;;;;;4990841;28;20462;-75
2021/10/02 06:11:27;;;;;;;39.45;26.77;;;10.80;99.90;;;;;;4991007;28;20034;-74
2021/10/02 06:13:53;;;;;;;45.05;27.00;;;10.80;99.90;;;;;;4993327;28;20030;-75
2021/10/02 06:16:19;;;;;;;42.65;26.85;;;10.80;99.90;;;;;;4991473;28;20045;-74
2021/10/02 06:18:45;;;;;;;38.95;25.20;;;10.80;99.90;;;;;;4992244;28;20048;-73
2021/10/02 06:21:14;;;;;;;43.00;26.83;;;10.80;99.90;;;;;;4990643;28;20411;-75
2021/10/02 06:23:41;;;;;;;37.72;26.73;;;10.80;99.90;;;;;;4990929;28;20030;-74
2021/10/02 06:26:07;;;;;;;40.03;27.30;;;10.80;99.90;;;;;;4992519;28;20046;-76
2021/10/02 06:28:33;;;;;;;38.72;25.15;;;10.70;99.90;;;;;;4989488;28;20104;-74
2021/10/02 06:30:59;;;;;;;36.45;24.35;;;10.80;99.90;;;;;;4989561;28;20026;-74
2021/10/02 06:33:25;;;;;;;37.33;23.48;;;10.80;99.90;;;;;;4989698;28;20026;-73
2021/10/02 06:35:51;;;;;;;33.60;22.95;;;10.80;99.90;;;;;;4991426;28;20034;-75
2021/10/02 06:38:16;;;;;;;37.53;24.95;;;10.80;99.90;;;;;;4992615;28;20042;-76
2021/10/02 06:40:43;;;;;;;39.92;25.30;;;10.80;99.90;;;;;;4990220;28;20031;-74
2021/10/02 06:43:10;;;;;;;39.85;24.08;;;10.80;99.90;;;;;;4990189;28;20113;-74
2021/10/02 06:45:36;;;;;;;38.25;25.67;;;10.80;99.90;;;;;;4988486;28;20025;-75
2021/10/02 06:48:03;;;;;;;40.67;25.33;;;10.80;99.90;;;;;;4990863;28;20052;-75
2021/10/02 06:50:29;;;;;;;38.17;25.15;;;10.80;99.90;;;;;;4990764;28;20117;-74
2021/10/02 06:52:55;;;;;;;35.45;23.50;;;10.90;99.90;;;;;;4990581;28;20121;-74
2021/10/02 06:55:22;;;;;;;35.55;23.85;;;10.90;99.90;;;;;;4995341;28;20034;-74
2021/10/02 06:57:48;;;;;;;37.60;25.38;;;10.90;99.90;;;;;;4988297;28;20053;-76
2021/10/02 07:00:14;;;;;;;40.08;25.33;;;10.90;99.90;;;;;;4991341;28;20066;-75
2021/10/02 07:02:44;;;;;;;38.65;24.38;;;10.90;99.90;;;;;;4985835;28;20029;-74
2021/10/02 07:05:13;;;;;;;34.95;24.20;;;10.90;99.90;;;;;;4992304;28;20082;-74
2021/10/02 07:07:40;;;;;;;37.95;25.00;;;11.00;99.90;;;;;;4988989;28;20844;-75
2021/10/02 07:10:08;;;;;;;39.78;25.85;;;11.00;99.90;;;;;;4992403;28;20033;-74
2021/10/02 07:12:35;;;;;;;40.72;25.50;;;11.10;99.90;;;;;;4988998;28;20053;-74
2021/10/02 07:15:04;;;;;;;37.50;24.83;;;11.10;99.90;;;;;;4990806;28;20034;-75
2021/10/02 07:17:30;;;;;;;38.28;26.27;;;11.10;99.90;;;;;;4990665;28;20519;-74
2021/10/02 07:19:56;;;;;;;41.05;26.05;;;11.10;99.90;;;;;;4988177;28;20042;-73
2021/10/02 07:22:21;;;;;;;38.97;24.20;;;11.20;99.90;;;;;;4981573;28;20049;-76
2021/10/02 07:24:47;;;;;;;39.33;24.38;;;11.20;99.90;;;;;;4988263;28;20053;-74
2021/10/02 07:27:13;;;;;;;35.20;23.45;;;11.30;99.90;;;;;;4988602;28;20101;-73
2021/10/02 07:29:39;;;;;;;37.00;23.77;;;11.30;99.90;;;;;;4990157;28;20034;-75
2021/10/02 07:32:05;;;;;;;33.58;23.30;;;11.30;99.90;;;;;;4990555;28;20044;-74
2021/10/02 07:34:31;;;;;;;35.03;23.70;;;11.40;99.90;;;;;;4988062;28;20026;-74
2021/10/02 07:36:57;;;;;;;36.53;24.48;;;11.40;99.90;;;;;;4988765;28;20084;-75
2021/10/02 07:39:23;;;;;;;32.70;22.48;;;11.50;99.90;;;;;;4987810;28;20034;-74
2021/10/02 07:41:49;;;;;;;31.60;22.27;;;11.50;99.90;;;;;;4989675;28;20120;-75
2021/10/02 07:44:20;;;;;;;33.22;24.02;;;11.50;99.90;;;;;;4990805;28;20030;-74
2021/10/02 07:46:53;;;;;;;33.10;23.23;;;11.50;99.90;;;;;;4989536;28;20484;-74
2021/10/02 07:49:21;;;;;;;33.75;22.15;;;11.60;99.90;;;;;;4985814;28;20038;-74
2021/10/02 07:51:48;;;;;;;34.85;21.77;;;11.70;99.90;;;;;;4990019;28;20590;-74
2021/10/02 07:54:14;;;;;;;28.77;21.08;;;11.70;99.90;;;;;;4983028;28;20090;-74
2021/10/02 07:56:42;;;;;;;28.42;20.73;;;11.70;99.90;;;;;;4988575;28;20034;-74
2021/10/02 07:59:08;;;;;;;30.27;19.98;;;11.80;99.90;;;;;;4990527;28;20065;-74
2021/10/02 08:01:34;;;;;;;29.75;20.38;;;11.80;99.90;;;;;;4989279;28;20042;-74
2021/10/02 08:04:06;;;;;;;28.73;20.35;;;11.80;99.90;;;;;;4989293;28;20095;-75
2021/10/02 08:06:32;;;;;;;25.63;19.17;;;11.90;99.90;;;;;;4980769;28;20019;-74
2021/10/02 08:08:59;;;;;;;30.55;19.05;;;11.90;99.90;;;;;;4988168;28;20030;-74
2021/10/02 08:11:26;;;;;;;26.13;19.38;;;12.00;99.90;;;;;;4991141;28;20169;-74
2021/10/02 08:13:53;;;;;;;24.83;18.70;;;12.00;99.90;;;;;;4987232;28;20050;-74
2021/10/02 08:16:19;;;;;;;26.42;19.48;;;12.10;99.90;;;;;;4987710;28;20098;-74
2021/10/02 08:18:47;;;;;;;22.95;18.40;;;12.20;99.90;;;;;;4990527;28;20080;-74
2021/10/02 08:21:14;;;;;;;24.70;19.33;;;12.20;99.90;;;;;;4990979;28;20023;-74
2021/10/02 08:23:42;;;;;;;24.20;17.67;;;12.30;99.90;;;;;;4990005;28;20050;-74
2021/10/02 08:26:14;;;;;;;19.63;16.38;;;12.40;99.90;;;;;;4991846;28;20038;-74
2021/10/02 08:28:49;;;;;;;27.95;16.90;;;12.40;99.90;;;;;;4987766;28;20057;-75
2021/10/02 08:31:18;;;;;;;23.17;18.17;;;12.40;99.90;;;;;;4989377;28;20511;-74
2021/10/02 08:33:44;;;;;;;20.08;16.13;;;12.50;99.90;;;;;;4987067;28;20387;-74
2021/10/02 08:36:11;;;;;;;22.98;17.02;;;12.60;99.90;;;;;;4985100;28;20034;-73
2021/10/02 08:38:38;;;;;;;20.02;16.10;;;12.60;99.90;;;;;;4988836;28;20569;-74
2021/10/02 08:41:05;;;;;;;25.00;17.67;;;12.60;99.90;;;;;;4990904;28;20541;-75
2021/10/02 08:43:33;;;;;;;20.05;15.25;;;12.60;99.90;;;;;;4986845;28;20038;-74
2021/10/02 08:46:02;;;;;;;19.52;16.13;;;12.60;99.90;;;;;;4988151;28;20087;-75
2021/10/02 08:48:29;;;;;;;20.70;16.17;;;12.70;99.90;;;;;;4982224;28;20117;-75
2021/10/02 08:50:56;;;;;;;21.20;17.08;;;12.70;99.90;;;;;;4987926;28;20391;-75
2021/10/02 08:53:26;;;;;;;20.33;17.00;;;12.70;99.90;;;;;;5002541;28;20081;-74
2021/10/02 08:55:52;;;;;;;20.83;15.65;;;12.70;99.90;;;;;;4991872;28;20035;-75
2021/10/02 08:58:18;;;;;;;18.67;14.63;;;12.70;99.90;;;;;;4991121;28;20065;-74
2021/10/02 09:00:44;;;;;;;19.65;15.70;;;12.70;99.90;;;;;;4992693;28;20025;-75
2021/10/02 09:03:10;;;;;;;21.00;15.18;;;12.70;99.90;;;;;;4991014;28;20115;-74
2021/10/02 09:05:36;;;;;;;19.80;16.00;;;12.80;99.90;;;;;;4989683;28;20488;-74
2021/10/02 09:08:04;;;;;;;22.35;16.58;;;12.90;99.90;;;;;;4994171;28;20101;-74
2021/10/02 09:10:32;;;;;;;17.92;16.02;;;13.00;99.90;;;;;;4987420;28;20022;-75
2021/10/02 09:12:59;;;;;;;17.27;14.40;;;13.10;99.90;;;;;;4988946;28;20486;-74
2021/10/02 09:15:25;;;;;;;19.92;15.52;;;13.20;99.90;;;;;;4990848;28;20069;-75
2021/10/02 09:17:52;;;;;;;17.67;14.88;;;13.30;99.90;;;;;;4990561;28;20034;-75
2021/10/02 09:20:18;;;;;;;15.90;13.63;;;13.30;99.90;;;;;;4993009;28;20084;-75
2021/10/02 09:23:00;;;;;;;16.70;12.85;;;13.30;99.90;;;;;;4989860;28;20037;-74
2021/10/02 09:25:29;;;;;;;17.83;14.43;;;13.50;99.90;;;;;;4988979;28;20030;-75
2021/10/02 09:28:24;;;;;;;20.20;14.27;;;13.50;99.90;;;;;;4987523;28;20065;-75
2021/10/02 09:31:02;;;;;;;20.52;14.63;;;13.60;99.90;;;;;;4988412;28;20042;-74
2021/10/02 09:33:32;;;;;;;27.20;13.25;;;13.60;99.90;;;;;;4990532;28;20026;-75
2021/10/02 09:35:57;;;;;;;20.38;13.88;;;13.50;99.90;;;;;;4990100;28;20044;-74
2021/10/02 09:38:24;;;;;;;20.17;15.68;;;13.50;99.90;;;;;;4988612;28;20050;-75
2021/10/02 09:40:58;;;;;;;16.70;13.63;;;13.50;99.90;;;;;;4989322;28;20037;-75
2021/10/02 09:43:25;;;;;;;18.50;14.40;;;13.60;99.90;;;;;;4988568;28;20069;-73
2021/10/02 09:45:52;;;;;;;17.90;14.38;;;13.60;99.90;;;;;;4990423;28;20022;-74
2021/10/02 09:48:29;;;;;;;16.40;13.93;;;13.60;99.90;;;;;;4990585;28;20030;-73
2021/10/02 09:51:03;;;;;;;17.52;13.50;;;13.60;99.90;;;;;;4989879;28;20030;-73
2021/10/02 09:53:40;;;;;;;16.27;13.43;;;13.80;99.90;;;;;;4991718;28;20038;-74
2021/10/02 09:56:08;;;;;;;18.58;13.52;;;13.80;99.90;;;;;;5007946;28;20058;-74
2021/10/02 09:58:35;;;;;;;15.27;12.75;;;13.90;99.90;;;;;;4987539;28;20037;-74
2021/10/02 10:01:04;;;;;;;16.08;13.05;;;14.00;99.90;;;;;;4988470;28;20792;-75
2021/10/02 10:03:44;;;;;;;15.70;13.15;;;14.20;99.90;;;;;;4986218;28;20038;-75
2021/10/02 10:06:16;;;;;;;16.52;13.40;;;14.20;99.90;;;;;;4977922;28;20033;-74
2021/10/02 10:08:42;;;;;;;18.42;14.10;;;14.20;99.90;;;;;;4992405;28;20027;-75
2021/10/02 10:11:10;;;;;;;15.45;13.18;;;14.30;99.90;;;;;;4994591;28;20033;-75
2021/10/02 10:13:36;;;;;;;18.13;14.07;;;14.30;99.90;;;;;;4991733;28;20030;-74
2021/10/02 10:16:07;;;;;;;17.05;13.82;;;14.30;99.90;;;;;;4990221;28;20077;-74
2021/10/02 10:18:38;;;;;;;17.25;13.80;;;14.40;99.90;;;;;;4991948;28;20018;-75
2021/10/02 10:21:07;;;;;;;18.48;14.10;;;14.30;99.90;;;;;;4989918;28;20039;-74
2021/10/02 10:23:45;;;;;;;16.77;14.10;;;14.40;99.90;;;;;;4992121;28;20076;-74
2021/10/02 10:26:17;;;;;;;17.05;13.65;;;14.40;99.90;;;;;;4993785;28;20106;-74
2021/10/02 10:28:45;;;;;;;19.70;13.57;;;14.60;99.90;;;;;;4991995;28;20487;-74
2021/10/02 10:31:14;;;;;;;17.55;12.90;;;14.60;99.90;;;;;;4990476;28;20101;-74
2021/10/02 10:33:42;;;;;;;16.20;14.13;;;14.60;99.90;;;;;;4987072;28;20038;-74
2021/10/02 10:36:08;;;;;;;16.73;13.55;;;14.70;99.90;;;;;;4989097;28;20030;-74
2021/10/02 10:38:35;;;;;;;18.35;12.52;;;14.80;99.90;;;;;;4988453;28;20046;-74
2021/10/02 10:41:03;;;;;;;15.38;12.68;;;14.80;99.90;;;;;;4991567;28;20026;-74
2021/10/02 10:43:30;;;;;;;15.73;13.23;;;14.90;99.90;;;;;;4989423;28;20022;-74
2021/10/02 10:46:00;;;;;;;13.00;11.75;;;14.90;99.90;;;;;;4984989;28;20073;-73
2021/10/02 10:48:26;;;;;;;13.27;10.80;;;15.00;99.90;;;;;;4980941;28;20105;-74
2021/10/02 10:50:52;;;;;;;16.55;13.35;;;15.10;99.90;;;;;;4986680;28;20030;-74
2021/10/02 10:53:19;;;;;;;15.95;12.43;;;15.10;99.90;;;;;;4991385;28;20105;-74
2021/10/02 10:55:53;;;;;;;15.45;11.82;;;15.20;99.90;;;;;;4991149;28;20400;-74
2021/10/02 10:58:30;;;;;;;16.40;11.82;;;15.30;99.90;;;;;;4989221;28;20165;-74
2021/10/02 11:00:57;;;;;;;15.77;11.80;;;15.30;99.90;;;;;;4990918;28;20030;-74
2021/10/02 11:03:39;;;;;;;11.50;10.30;;;15.40;99.90;;;;;;4985826;28;20026;-74
2021/10/02 11:06:07;;;;;;;11.85;9.98;;;15.40;99.90;;;;;;4975766;28;20034;-73
2021/10/02 11:09:07;;;;;;;11.38;9.60;;;15.50;99.90;;;;;;4988981;28;20029;-75
2021/10/02 11:11:51;;;;;;;14.77;10.70;;;15.50;99.90;;;;;;4987053;28;20030;-74
2021/10/02 11:14:45;;;;;;;12.00;9.90;;;15.70;99.90;;;;;;4991353;28;20039;-74
2021/10/02 11:17:12;;;;;;;20.48;10.73;;;15.80;99.90;;;;;;4991988;28;20034;-74
2021/10/02 11:19:43;;;;;;;11.18;9.57;;;15.80;99.90;;;;;;4988593;28;20426;-74
2021/10/02 11:22:40;;;;;;;11.02;8.60;;;15.80;99.90;;;;;;4986865;28;20065;-74
2021/10/02 11:25:35;;;;;;;14.23;9.40;;;15.90;99.90;;;;;;4984505;28;20448;-74
2021/10/02 11:28:23;;;;;;;10.70;7.65;;;16.10;99.90;;;;;;4976155;28;20047;-74
2021/10/02 11:30:54;;;;;;;9.02;7.70;;;16.20;99.90;;;;;;4981122;28;20027;-74
2021/10/02 11:33:35;;;;;;;11.38;8.48;;;16.40;99.90;;;;;;4989750;28;20026;-74
2021/10/02 11:36:35;;;;;;;9.30;8.27;;;16.40;99.90;;;;;;4988144;28;20553;-74
2021/10/02 11:39:22;;;;;;;10.15;8.20;;;16.50;99.90;;;;;;4988763;28;20061;-74
2021/10/02 11:41:59;;;;;;;9.23;8.32;;;16.50;99.90;;;;;;4988258;28;20081;-74
2021/10/02 11:44:34;;;;;;;10.27;8.48;;;16.50;99.90;;;;;;4988948;28;20030;-74
2021/10/02 11:47:32;;;;;;;8.48;7.57;;;16.60;99.90;;;;;;4992133;28;20054;-74
2021/10/02 11:50:12;;;;;;;9.18;8.18;;;16.70;99.90;;;;;;4991992;28;20030;-74
2021/10/02 11:52:47;;;;;;;10.25;8.05;;;16.80;99.90;;;;;;4988652;28;20038;-74
2021/10/02 11:55:40;;;;;;;13.38;8.25;;;17.00;99.90;;;;;;4990021;28;20141;-74
2021/10/02 11:58:09;;;;;;;12.30;8.98;;;17.20;99.90;;;;;;4985579;28;20035;-73
2021/10/02 12:00:43;;;;;;;9.85;7.68;;;17.30;99.90;;;;;;4990181;28;20023;-73
2021/10/02 12:03:09;;;;;;;10.35;7.80;;;17.30;99.90;;;;;;4988945;28;20429;-74
2021/10/02 12:05:35;;;;;;;9.05;7.43;;;17.40;99.90;;;;;;4990715;28;20109;-74
2021/10/02 12:08:01;;;;;;;10.50;8.18;;;17.40;99.90;;;;;;4990949;28;20565;-74
2021/10/02 12:10:27;;;;;;;8.30;7.50;;;17.50;99.90;;;;;;4988616;28;20026;-74
2021/10/02 12:13:13;;;;;;;10.18;8.15;;;17.60;99.90;;;;;;4990132;28;20502;-74
2021/10/02 12:15:39;;;;;;;8.43;7.25;;;17.70;99.90;;;;;;4988226;28;20103;-74
2021/10/02 12:18:05;;;;;;;8.93;7.50;;;17.60;99.90;;;;;;4990244;28;20042;-73
2021/10/02 12:20:42;;;;;;;9.25;8.25;;;17.70;99.90;;;;;;4989453;28;20038;-75
2021/10/02 12:23:11;;;;;;;9.00;8.10;;;17.80;99.90;;;;;;4985595;28;20365;-75
2021/10/02 12:25:39;;;;;;;9.40;8.40;;;17.70;99.90;;;;;;4986930;28;20479;-75
2021/10/02 12:28:05;;;;;;;8.85;7.95;;;17.70;99.90;;;;;;4990582;28;20038;-75
2021/10/02 12:30:31;;;;;;;10.43;7.90;;;17.60;99.90;;;;;;4993907;28;20125;-75
2021/10/02 12:33:01;;;;;;;10.27;8.32;;;17.60;99.90;;;;;;4990909;28;20121;-75
2021/10/02 12:35:28;;;;;;;9.68;7.82;;;17.60;99.90;;;;;;4994842;28;20034;-75
2021/10/02 12:37:57;;;;;;;8.63;7.18;;;17.70;99.90;;;;;;4989063;28;20185;-75
2021/10/02 12:40:27;;;;;;;9.75;8.75;;;17.70;99.90;;;;;;4991777;28;20057;-74
2021/10/02 12:42:58;;;;;;;8.60;7.68;;;17.80;99.90;;;;;;4992888;28;20498;-75
2021/10/02 12:45:30;;;;;;;10.43;7.07;;;17.90;99.90;;;;;;4992399;28;20429;-73
2021/10/02 12:48:00;;;;;;;12.80;9.52;;;18.00;99.90;;;;;;4993946;28;20026;-75
2021/10/02 12:50:29;;;;;;;9.75;7.72;;;18.10;99.90;;;;;;4994590;28;20022;-75
2021/10/02 12:52:57;;;;;;;8.45;6.93;;;18.10;99.90;;;;;;4990886;28;20148;-72
2021/10/02 12:55:23;;;;;;;10.23;7.03;;;18.00;99.90;;;;;;4993470;28;20030;-72
2021/10/02 12:57:49;;;;;;;7.32;6.07;;;18.00;99.90;;;;;;4991759;28;20046;-73
2021/10/02 13:00:25;;;;;;;11.65;6.95;;;18.00;99.90;;;;;;4989791;28;20111;-74
2021/10/02 13:03:00;;;;;;;7.18;6.28;;;18.10;99.90;;;;;;4987259;28;20022;-75
2021/10/02 13:05:28;;;;;;;6.93;6.22;;;18.10;99.90;;;;;;4990643;28;20120;-75
2021/10/02 13:07:59;;;;;;;11.18;6.22;;;18.10;99.90;;;;;;4992465;28;20459;-75
2021/10/02 13:10:28;;;;;;;9.73;6.00;;;18.10;99.90;;;;;;4988063;28;20424;-74
2021/10/02 13:12:57;;;;;;;12.35;6.20;;;18.10;99.90;;;;;;4986110;28;20085;-75
2021/10/02 13:15:28;;;;;;;7.85;5.93;;;18.10;99.90;;;;;;4990253;28;20121;-75
2021/10/02 13:18:01;;;;;;;7.88;6.47;;;18.10;99.90;;;;;;4989675;28;20467;-75
2021/10/02 13:20:27;;;;;;;7.80;7.00;;;18.00;99.90;;;;;;4992253;28;20027;-75
2021/10/02 13:22:53;;;;;;;8.93;5.75;;;18.10;99.90;;;;;;4991721;28;20104;-75
2021/10/02 13:25:29;;;;;;;8.52;6.20;;;18.10;99.90;;;;;;4990450;28;20062;-75
2021/10/02 13:27:56;;;;;;;7.63;6.70;;;18.10;99.90;;;;;;4988169;28;20038;-75
2021/10/02 13:30:34;;;;;;;8.63;7.05;;;18.10;99.90;;;;;;4989481;28;20097;-75
2021/10/02 13:33:05;;;;;;;10.50;6.82;;;18.00;99.90;;;;;;4988774;28;20027;-75
2021/10/02 13:35:36;;;;;;;7.85;6.10;;;18.00;99.90;;;;;;4991027;28;20037;-75
2021/10/02 13:38:03;;;;;;;10.25;6.13;;;18.00;99.90;;;;;;4993972;28;20090;-75